sensor_id;sensor_type;location;lat;lon;timestamp;P1;durP1;ratioP1;P2;durP2;ratioP2
41333;SDS011;27078;46.428;6.256;2023-08-20T00:00:27;4.80;;;3.30;;
41333;SDS011;27078;46.428;6.256;2023-08-20T00:02:55;7.75;;;3.63;;
41333;SDS011;27078;46.428;6.256;2023-08-20T00:05:24;6.78;;;3.45;;
41333;SDS011;27078;46.428;6.256;2023-08-20T00:07:52;9.00;;;3.60;;
41333;SDS011;27078;46.428;6.256;2023-08-20T00:10:17;4.40;;;3.45;;
41333;SDS011;27078;46.428;6.256;2023-08-20T00:12:43;6.53;;;3.45;;
41333;SDS011;27078;46.428;6.256;2023-08-20T00:15:08;5.57;;;3.30;;
41333;SDS011;27078;46.428;6.256;2023-08-20T00:17:34;7.50;;;3.30;;
41333;SDS011;27078;46.428;6.256;2023-08-20T00:20:01;6.68;;;3.60;;
41333;SDS011;27078;46.428;6.256;2023-08-20T00:22:34;6.60;;;3.40;;
41333;SDS011;27078;46.428;6.256;2023-08-20T00:25:00;5.18;;;3.20;;
41333;SDS011;27078;46.428;6.256;2023-08-20T00:27:25;6.80;;;3.30;;
41333;SDS011;27078;46.428;6.256;2023-08-20T00:29:51;8.52;;;3.75;;
41333;SDS011;27078;46.428;6.256;2023-08-20T00:32:16;5.88;;;3.50;;
41333;SDS011;27078;46.428;6.256;2023-08-20T00:34:41;8.95;;;3.75;;
41333;SDS011;27078;46.428;6.256;2023-08-20T00:37:07;7.75;;;3.50;;
41333;SDS011;27078;46.428;6.256;2023-08-20T00:39:32;5.20;;;3.47;;
41333;SDS011;27078;46.428;6.256;2023-08-20T00:41:57;7.00;;;3.80;;
41333;SDS011;27078;46.428;6.256;2023-08-20T00:44:23;5.38;;;3.22;;
41333;SDS011;27078;46.428;6.256;2023-08-20T00:46:48;7.13;;;3.65;;
41333;SDS011;27078;46.428;6.256;2023-08-20T00:49:14;5.95;;;3.80;;
41333;SDS011;27078;46.428;6.256;2023-08-20T00:51:40;8.82;;;3.53;;
41333;SDS011;27078;46.428;6.256;2023-08-20T00:54:05;5.72;;;3.30;;
41333;SDS011;27078;46.428;6.256;2023-08-20T00:56:31;5.68;;;3.30;;
41333;SDS011;27078;46.428;6.256;2023-08-20T00:58:57;5.88;;;3.40;;
41333;SDS011;27078;46.428;6.256;2023-08-20T01:01:23;5.70;;;3.88;;
41333;SDS011;27078;46.428;6.256;2023-08-20T01:03:48;4.30;;;3.40;;
41333;SDS011;27078;46.428;6.256;2023-08-20T01:08:52;9.98;;;3.85;;
41333;SDS011;27078;46.428;6.256;2023-08-20T01:11:33;6.63;;;3.63;;
41333;SDS011;27078;46.428;6.256;2023-08-20T01:14:02;6.22;;;3.40;;
41333;SDS011;27078;46.428;6.256;2023-08-20T01:16:27;8.43;;;3.47;;
41333;SDS011;27078;46.428;6.256;2023-08-20T01:18:52;8.02;;;3.78;;
41333;SDS011;27078;46.428;6.256;2023-08-20T01:21:38;7.28;;;3.40;;
41333;SDS011;27078;46.428;6.256;2023-08-20T01:24:21;7.00;;;3.47;;
41333;SDS011;27078;46.428;6.256;2023-08-20T01:27:08;7.43;;;3.35;;
41333;SDS011;27078;46.428;6.256;2023-08-20T01:29:44;4.97;;;3.60;;
41333;SDS011;27078;46.428;6.256;2023-08-20T01:32:10;6.93;;;3.50;;
41333;SDS011;27078;46.428;6.256;2023-08-20T01:34:37;6.03;;;3.88;;
41333;SDS011;27078;46.428;6.256;2023-08-20T01:37:03;4.93;;;3.50;;
41333;SDS011;27078;46.428;6.256;2023-08-20T01:39:28;8.13;;;3.42;;
41333;SDS011;27078;46.428;6.256;2023-08-20T01:41:54;8.52;;;3.45;;
41333;SDS011;27078;46.428;6.256;2023-08-20T01:44:19;5.55;;;3.00;;
41333;SDS011;27078;46.428;6.256;2023-08-20T01:46:44;5.45;;;3.38;;
41333;SDS011;27078;46.428;6.256;2023-08-20T01:49:10;6.47;;;3.65;;
41333;SDS011;27078;46.428;6.256;2023-08-20T01:51:35;5.13;;;3.47;;
41333;SDS011;27078;46.428;6.256;2023-08-20T01:54:01;4.43;;;3.78;;
41333;SDS011;27078;46.428;6.256;2023-08-20T01:56:27;10.50;;;3.50;;
41333;SDS011;27078;46.428;6.256;2023-08-20T01:58:52;6.85;;;3.40;;
41333;SDS011;27078;46.428;6.256;2023-08-20T02:01:17;7.90;;;3.88;;
41333;SDS011;27078;46.428;6.256;2023-08-20T02:03:43;5.93;;;3.63;;
41333;SDS011;27078;46.428;6.256;2023-08-20T02:06:08;4.90;;;3.60;;
41333;SDS011;27078;46.428;6.256;2023-08-20T02:08:34;7.53;;;3.75;;
41333;SDS011;27078;46.428;6.256;2023-08-20T02:11:00;7.40;;;3.50;;
41333;SDS011;27078;46.428;6.256;2023-08-20T02:13:26;7.65;;;3.60;;
41333;SDS011;27078;46.428;6.256;2023-08-20T02:16:01;7.03;;;3.58;;
41333;SDS011;27078;46.428;6.256;2023-08-20T02:18:28;6.82;;;3.65;;
41333;SDS011;27078;46.428;6.256;2023-08-20T02:20:54;8.75;;;3.50;;
41333;SDS011;27078;46.428;6.256;2023-08-20T02:23:19;7.15;;;3.63;;
41333;SDS011;27078;46.428;6.256;2023-08-20T02:25:45;10.50;;;4.10;;
41333;SDS011;27078;46.428;6.256;2023-08-20T02:28:10;5.82;;;3.80;;
41333;SDS011;27078;46.428;6.256;2023-08-20T02:30:41;7.40;;;3.58;;
41333;SDS011;27078;46.428;6.256;2023-08-20T02:33:07;8.77;;;3.45;;
41333;SDS011;27078;46.428;6.256;2023-08-20T02:35:33;9.32;;;3.80;;
41333;SDS011;27078;46.428;6.256;2023-08-20T02:37:58;5.88;;;3.42;;
41333;SDS011;27078;46.428;6.256;2023-08-20T02:40:24;6.57;;;3.88;;
41333;SDS011;27078;46.428;6.256;2023-08-20T02:42:49;6.57;;;3.90;;
41333;SDS011;27078;46.428;6.256;2023-08-20T02:45:14;8.02;;;3.97;;
41333;SDS011;27078;46.428;6.256;2023-08-20T02:47:40;6.75;;;3.83;;
41333;SDS011;27078;46.428;6.256;2023-08-20T02:50:05;7.40;;;4.00;;
41333;SDS011;27078;46.428;6.256;2023-08-20T02:52:31;8.95;;;4.05;;
41333;SDS011;27078;46.428;6.256;2023-08-20T02:54:56;9.43;;;3.70;;
41333;SDS011;27078;46.428;6.256;2023-08-20T02:57:21;6.13;;;3.72;;
41333;SDS011;27078;46.428;6.256;2023-08-20T02:59:47;8.60;;;3.80;;
41333;SDS011;27078;46.428;6.256;2023-08-20T03:02:12;7.03;;;3.83;;
41333;SDS011;27078;46.428;6.256;2023-08-20T03:04:37;7.70;;;3.40;;
41333;SDS011;27078;46.428;6.256;2023-08-20T03:07:03;5.97;;;3.90;;
41333;SDS011;27078;46.428;6.256;2023-08-20T03:09:28;7.25;;;3.70;;
41333;SDS011;27078;46.428;6.256;2023-08-20T03:11:53;8.18;;;3.45;;
41333;SDS011;27078;46.428;6.256;2023-08-20T03:14:19;6.93;;;3.80;;
41333;SDS011;27078;46.428;6.256;2023-08-20T03:16:44;6.75;;;3.72;;
41333;SDS011;27078;46.428;6.256;2023-08-20T03:19:09;8.23;;;3.85;;
41333;SDS011;27078;46.428;6.256;2023-08-20T03:21:34;5.80;;;3.83;;
41333;SDS011;27078;46.428;6.256;2023-08-20T03:24:00;7.97;;;4.20;;
41333;SDS011;27078;46.428;6.256;2023-08-20T03:26:25;10.90;;;4.22;;
41333;SDS011;27078;46.428;6.256;2023-08-20T03:28:51;9.07;;;3.92;;
41333;SDS011;27078;46.428;6.256;2023-08-20T03:31:16;7.10;;;3.90;;
41333;SDS011;27078;46.428;6.256;2023-08-20T03:33:42;7.32;;;3.78;;
41333;SDS011;27078;46.428;6.256;2023-08-20T03:36:07;7.32;;;4.10;;
41333;SDS011;27078;46.428;6.256;2023-08-20T03:38:32;6.78;;;3.90;;
41333;SDS011;27078;46.428;6.256;2023-08-20T03:40:58;7.85;;;3.85;;
41333;SDS011;27078;46.428;6.256;2023-08-20T03:43:23;5.82;;;4.00;;
41333;SDS011;27078;46.428;6.256;2023-08-20T03:45:51;8.85;;;3.72;;
41333;SDS011;27078;46.428;6.256;2023-08-20T03:48:17;8.65;;;4.10;;
41333;SDS011;27078;46.428;6.256;2023-08-20T03:50:44;7.90;;;3.88;;
41333;SDS011;27078;46.428;6.256;2023-08-20T03:53:09;7.63;;;3.90;;
41333;SDS011;27078;46.428;6.256;2023-08-20T03:55:34;8.82;;;3.83;;
41333;SDS011;27078;46.428;6.256;2023-08-20T03:58:00;6.70;;;3.92;;
41333;SDS011;27078;46.428;6.256;2023-08-20T04:00:25;8.43;;;3.90;;
41333;SDS011;27078;46.428;6.256;2023-08-20T04:02:50;7.13;;;3.70;;
41333;SDS011;27078;46.428;6.256;2023-08-20T04:05:16;8.07;;;3.92;;
41333;SDS011;27078;46.428;6.256;2023-08-20T04:07:42;8.57;;;3.80;;
41333;SDS011;27078;46.428;6.256;2023-08-20T04:10:07;7.93;;;4.05;;
41333;SDS011;27078;46.428;6.256;2023-08-20T04:12:33;6.45;;;4.00;;
41333;SDS011;27078;46.428;6.256;2023-08-20T04:14:58;9.85;;;4.50;;
41333;SDS011;27078;46.428;6.256;2023-08-20T04:17:24;8.05;;;3.95;;
41333;SDS011;27078;46.428;6.256;2023-08-20T04:19:49;6.85;;;3.88;;
41333;SDS011;27078;46.428;6.256;2023-08-20T04:22:15;9.55;;;4.15;;
41333;SDS011;27078;46.428;6.256;2023-08-20T04:24:40;8.50;;;3.83;;
41333;SDS011;27078;46.428;6.256;2023-08-20T04:27:05;8.55;;;4.00;;
41333;SDS011;27078;46.428;6.256;2023-08-20T04:29:31;5.60;;;3.75;;
41333;SDS011;27078;46.428;6.256;2023-08-20T04:31:56;7.53;;;3.95;;
41333;SDS011;27078;46.428;6.256;2023-08-20T04:34:21;6.28;;;3.58;;
41333;SDS011;27078;46.428;6.256;2023-08-20T04:36:47;4.97;;;3.90;;
41333;SDS011;27078;46.428;6.256;2023-08-20T04:39:12;6.75;;;3.80;;
41333;SDS011;27078;46.428;6.256;2023-08-20T04:41:37;6.78;;;3.67;;
41333;SDS011;27078;46.428;6.256;2023-08-20T04:44:03;7.65;;;4.13;;
41333;SDS011;27078;46.428;6.256;2023-08-20T04:46:28;5.82;;;3.83;;
41333;SDS011;27078;46.428;6.256;2023-08-20T04:48:53;6.57;;;4.13;;
41333;SDS011;27078;46.428;6.256;2023-08-20T04:51:19;6.20;;;3.80;;
41333;SDS011;27078;46.428;6.256;2023-08-20T04:53:44;7.18;;;3.88;;
41333;SDS011;27078;46.428;6.256;2023-08-20T04:56:11;8.40;;;3.80;;
41333;SDS011;27078;46.428;6.256;2023-08-20T04:58:37;6.78;;;3.80;;
41333;SDS011;27078;46.428;6.256;2023-08-20T05:01:02;9.82;;;4.20;;
41333;SDS011;27078;46.428;6.256;2023-08-20T05:03:27;8.43;;;3.90;;
41333;SDS011;27078;46.428;6.256;2023-08-20T05:05:53;7.50;;;3.67;;
41333;SDS011;27078;46.428;6.256;2023-08-20T05:08:18;6.22;;;3.70;;
41333;SDS011;27078;46.428;6.256;2023-08-20T05:10:43;6.82;;;3.95;;
41333;SDS011;27078;46.428;6.256;2023-08-20T05:13:09;5.47;;;3.60;;
41333;SDS011;27078;46.428;6.256;2023-08-20T05:15:34;6.05;;;3.67;;
41333;SDS011;27078;46.428;6.256;2023-08-20T05:17:59;6.93;;;3.50;;
41333;SDS011;27078;46.428;6.256;2023-08-20T05:20:25;7.50;;;3.30;;
41333;SDS011;27078;46.428;6.256;2023-08-20T05:22:50;7.43;;;3.78;;
41333;SDS011;27078;46.428;6.256;2023-08-20T05:25:15;4.93;;;3.60;;
41333;SDS011;27078;46.428;6.256;2023-08-20T05:27:41;6.30;;;4.20;;
41333;SDS011;27078;46.428;6.256;2023-08-20T05:30:06;11.48;;;3.75;;
41333;SDS011;27078;46.428;6.256;2023-08-20T05:32:33;5.40;;;3.65;;
41333;SDS011;27078;46.428;6.256;2023-08-20T05:34:58;8.18;;;3.83;;
41333;SDS011;27078;46.428;6.256;2023-08-20T05:37:24;9.27;;;3.58;;
41333;SDS011;27078;46.428;6.256;2023-08-20T05:39:49;5.78;;;3.58;;
41333;SDS011;27078;46.428;6.256;2023-08-20T05:42:14;7.10;;;3.53;;
41333;SDS011;27078;46.428;6.256;2023-08-20T05:44:40;4.82;;;3.50;;
41333;SDS011;27078;46.428;6.256;2023-08-20T05:47:05;5.50;;;3.45;;
41333;SDS011;27078;46.428;6.256;2023-08-20T05:49:30;6.68;;;4.05;;
41333;SDS011;27078;46.428;6.256;2023-08-20T05:51:56;6.05;;;3.60;;
41333;SDS011;27078;46.428;6.256;2023-08-20T05:54:21;8.50;;;3.95;;
41333;SDS011;27078;46.428;6.256;2023-08-20T05:56:46;5.75;;;3.90;;
41333;SDS011;27078;46.428;6.256;2023-08-20T05:59:12;8.18;;;3.75;;
41333;SDS011;27078;46.428;6.256;2023-08-20T06:01:37;7.20;;;3.60;;
41333;SDS011;27078;46.428;6.256;2023-08-20T06:04:02;6.32;;;3.80;;
41333;SDS011;27078;46.428;6.256;2023-08-20T06:06:28;7.10;;;3.85;;
41333;SDS011;27078;46.428;6.256;2023-08-20T06:08:53;7.18;;;3.58;;
41333;SDS011;27078;46.428;6.256;2023-08-20T06:11:19;6.00;;;3.60;;
41333;SDS011;27078;46.428;6.256;2023-08-20T06:13:45;6.78;;;3.80;;
41333;SDS011;27078;46.428;6.256;2023-08-20T06:16:10;7.00;;;4.60;;
41333;SDS011;27078;46.428;6.256;2023-08-20T06:18:36;5.63;;;3.58;;
41333;SDS011;27078;46.428;6.256;2023-08-20T06:21:02;6.75;;;4.20;;
41333;SDS011;27078;46.428;6.256;2023-08-20T06:23:28;5.65;;;3.67;;
41333;SDS011;27078;46.428;6.256;2023-08-20T06:25:53;5.60;;;3.97;;
41333;SDS011;27078;46.428;6.256;2023-08-20T06:28:19;8.13;;;4.38;;
41333;SDS011;27078;46.428;6.256;2023-08-20T06:30:44;7.10;;;4.10;;
41333;SDS011;27078;46.428;6.256;2023-08-20T06:33:10;6.72;;;3.85;;
41333;SDS011;27078;46.428;6.256;2023-08-20T06:35:36;10.27;;;4.72;;
41333;SDS011;27078;46.428;6.256;2023-08-20T06:38:01;6.78;;;4.20;;
41333;SDS011;27078;46.428;6.256;2023-08-20T06:40:27;6.40;;;3.90;;
41333;SDS011;27078;46.428;6.256;2023-08-20T06:42:52;7.97;;;4.10;;
41333;SDS011;27078;46.428;6.256;2023-08-20T06:45:17;6.65;;;3.65;;
41333;SDS011;27078;46.428;6.256;2023-08-20T06:47:43;7.25;;;3.95;;
41333;SDS011;27078;46.428;6.256;2023-08-20T06:50:08;6.68;;;4.25;;
41333;SDS011;27078;46.428;6.256;2023-08-20T06:52:34;7.82;;;4.35;;
41333;SDS011;27078;46.428;6.256;2023-08-20T06:54:59;5.85;;;3.70;;
41333;SDS011;27078;46.428;6.256;2023-08-20T06:57:24;7.63;;;4.20;;
41333;SDS011;27078;46.428;6.256;2023-08-20T06:59:50;7.20;;;4.20;;
41333;SDS011;27078;46.428;6.256;2023-08-20T07:02:15;7.05;;;3.97;;
41333;SDS011;27078;46.428;6.256;2023-08-20T07:04:40;7.28;;;4.38;;
41333;SDS011;27078;46.428;6.256;2023-08-20T07:07:06;8.88;;;4.25;;
41333;SDS011;27078;46.428;6.256;2023-08-20T07:09:31;8.63;;;4.30;;
41333;SDS011;27078;46.428;6.256;2023-08-20T07:11:57;6.97;;;4.28;;
41333;SDS011;27078;46.428;6.256;2023-08-20T07:14:22;8.82;;;4.20;;
41333;SDS011;27078;46.428;6.256;2023-08-20T07:16:47;9.73;;;4.50;;
41333;SDS011;27078;46.428;6.256;2023-08-20T07:19:12;9.15;;;4.50;;
41333;SDS011;27078;46.428;6.256;2023-08-20T07:21:38;8.30;;;4.47;;
41333;SDS011;27078;46.428;6.256;2023-08-20T07:24:03;9.68;;;4.60;;
41333;SDS011;27078;46.428;6.256;2023-08-20T07:26:29;5.97;;;3.92;;
41333;SDS011;27078;46.428;6.256;2023-08-20T07:28:54;5.53;;;3.85;;
41333;SDS011;27078;46.428;6.256;2023-08-20T07:31:23;6.57;;;3.65;;
41333;SDS011;27078;46.428;6.256;2023-08-20T07:33:49;19.15;;;4.00;;
41333;SDS011;27078;46.428;6.256;2023-08-20T07:36:16;14.57;;;4.55;;
41333;SDS011;27078;46.428;6.256;2023-08-20T07:38:42;10.15;;;4.95;;
41333;SDS011;27078;46.428;6.256;2023-08-20T07:41:09;9.80;;;4.80;;
41333;SDS011;27078;46.428;6.256;2023-08-20T07:43:36;9.73;;;4.75;;
41333;SDS011;27078;46.428;6.256;2023-08-20T07:46:03;10.10;;;4.75;;
41333;SDS011;27078;46.428;6.256;2023-08-20T07:48:28;11.48;;;4.70;;
41333;SDS011;27078;46.428;6.256;2023-08-20T07:50:53;7.15;;;4.40;;
41333;SDS011;27078;46.428;6.256;2023-08-20T07:53:19;10.27;;;4.90;;
41333;SDS011;27078;46.428;6.256;2023-08-20T07:55:44;8.50;;;4.35;;
41333;SDS011;27078;46.428;6.256;2023-08-20T07:58:09;9.00;;;4.60;;
41333;SDS011;27078;46.428;6.256;2023-08-20T08:00:35;8.23;;;5.10;;
41333;SDS011;27078;46.428;6.256;2023-08-20T08:03:00;10.13;;;5.00;;
41333;SDS011;27078;46.428;6.256;2023-08-20T08:05:25;7.60;;;4.47;;
41333;SDS011;27078;46.428;6.256;2023-08-20T08:07:51;8.05;;;4.40;;
41333;SDS011;27078;46.428;6.256;2023-08-20T08:10:16;7.28;;;4.32;;
41333;SDS011;27078;46.428;6.256;2023-08-20T08:12:41;7.68;;;4.55;;
41333;SDS011;27078;46.428;6.256;2023-08-20T08:15:07;7.07;;;4.43;;
41333;SDS011;27078;46.428;6.256;2023-08-20T08:17:32;6.50;;;4.28;;
41333;SDS011;27078;46.428;6.256;2023-08-20T08:19:58;8.93;;;4.88;;
41333;SDS011;27078;46.428;6.256;2023-08-20T08:22:23;8.50;;;4.90;;
41333;SDS011;27078;46.428;6.256;2023-08-20T08:24:48;5.78;;;4.65;;
41333;SDS011;27078;46.428;6.256;2023-08-20T08:27:14;9.20;;;4.40;;
41333;SDS011;27078;46.428;6.256;2023-08-20T08:29:39;8.23;;;4.63;;
41333;SDS011;27078;46.428;6.256;2023-08-20T08:32:05;7.18;;;4.72;;
41333;SDS011;27078;46.428;6.256;2023-08-20T08:34:30;10.93;;;5.15;;
41333;SDS011;27078;46.428;6.256;2023-08-20T08:36:55;9.30;;;5.30;;
41333;SDS011;27078;46.428;6.256;2023-08-20T08:39:21;9.20;;;5.03;;
41333;SDS011;27078;46.428;6.256;2023-08-20T08:41:48;7.40;;;4.80;;
41333;SDS011;27078;46.428;6.256;2023-08-20T08:44:16;8.88;;;5.07;;
41333;SDS011;27078;46.428;6.256;2023-08-20T08:46:42;8.70;;;4.90;;
41333;SDS011;27078;46.428;6.256;2023-08-20T08:49:07;9.60;;;5.18;;
41333;SDS011;27078;46.428;6.256;2023-08-20T08:51:33;5.70;;;4.22;;
41333;SDS011;27078;46.428;6.256;2023-08-20T08:54:00;5.85;;;4.43;;
41333;SDS011;27078;46.428;6.256;2023-08-20T08:56:26;8.77;;;5.30;;
41333;SDS011;27078;46.428;6.256;2023-08-20T08:58:52;7.30;;;4.82;;
41333;SDS011;27078;46.428;6.256;2023-08-20T09:01:18;6.38;;;4.90;;
41333;SDS011;27078;46.428;6.256;2023-08-20T09:03:43;7.15;;;4.65;;
41333;SDS011;27078;46.428;6.256;2023-08-20T09:06:09;8.20;;;4.70;;
41333;SDS011;27078;46.428;6.256;2023-08-20T09:08:35;9.00;;;5.40;;
41333;SDS011;27078;46.428;6.256;2023-08-20T09:11:00;8.75;;;4.95;;
41333;SDS011;27078;46.428;6.256;2023-08-20T09:16:07;8.13;;;4.90;;
41333;SDS011;27078;46.428;6.256;2023-08-20T09:18:37;6.53;;;4.60;;
41333;SDS011;27078;46.428;6.256;2023-08-20T09:21:06;7.35;;;4.72;;
41333;SDS011;27078;46.428;6.256;2023-08-20T09:23:32;8.88;;;5.10;;
41333;SDS011;27078;46.428;6.256;2023-08-20T09:25:57;11.40;;;5.18;;
41333;SDS011;27078;46.428;6.256;2023-08-20T09:28:26;6.78;;;5.10;;
41333;SDS011;27078;46.428;6.256;2023-08-20T09:30:55;8.65;;;4.97;;
41333;SDS011;27078;46.428;6.256;2023-08-20T09:33:21;7.90;;;4.80;;
41333;SDS011;27078;46.428;6.256;2023-08-20T09:35:50;7.97;;;4.90;;
41333;SDS011;27078;46.428;6.256;2023-08-20T09:38:18;9.50;;;5.30;;
41333;SDS011;27078;46.428;6.256;2023-08-20T09:40:48;6.50;;;4.63;;
41333;SDS011;27078;46.428;6.256;2023-08-20T09:43:15;8.77;;;5.18;;
41333;SDS011;27078;46.428;6.256;2023-08-20T09:45:42;8.30;;;4.90;;
41333;SDS011;27078;46.428;6.256;2023-08-20T09:48:08;7.60;;;5.00;;
41333;SDS011;27078;46.428;6.256;2023-08-20T09:50:35;8.60;;;5.13;;
41333;SDS011;27078;46.428;6.256;2023-08-20T09:55:59;8.90;;;4.90;;
41333;SDS011;27078;46.428;6.256;2023-08-20T09:58:48;9.48;;;5.00;;
41333;SDS011;27078;46.428;6.256;2023-08-20T10:01:13;8.05;;;5.45;;
41333;SDS011;27078;46.428;6.256;2023-08-20T10:03:39;10.10;;;5.00;;
41333;SDS011;27078;46.428;6.256;2023-08-20T10:06:07;11.50;;;6.60;;
41333;SDS011;27078;46.428;6.256;2023-08-20T10:08:34;6.35;;;4.93;;
41333;SDS011;27078;46.428;6.256;2023-08-20T10:11:01;13.52;;;5.45;;
41333;SDS011;27078;46.428;6.256;2023-08-20T10:13:26;7.75;;;5.00;;
41333;SDS011;27078;46.428;6.256;2023-08-20T10:15:53;6.63;;;4.68;;
41333;SDS011;27078;46.428;6.256;2023-08-20T10:18:20;10.40;;;5.50;;
41333;SDS011;27078;46.428;6.256;2023-08-20T10:20:47;9.23;;;4.97;;
41333;SDS011;27078;46.428;6.256;2023-08-20T10:23:15;8.25;;;5.18;;
41333;SDS011;27078;46.428;6.256;2023-08-20T10:25:44;12.75;;;7.03;;
41333;SDS011;27078;46.428;6.256;2023-08-20T10:28:12;10.98;;;5.32;;
41333;SDS011;27078;46.428;6.256;2023-08-20T10:33:27;8.90;;;5.38;;
41333;SDS011;27078;46.428;6.256;2023-08-20T10:35:52;8.18;;;5.07;;
41333;SDS011;27078;46.428;6.256;2023-08-20T10:38:18;11.50;;;6.07;;
41333;SDS011;27078;46.428;6.256;2023-08-20T10:40:56;6.45;;;5.20;;
41333;SDS011;27078;46.428;6.256;2023-08-20T10:48:41;7.72;;;5.13;;
41333;SDS011;27078;46.428;6.256;2023-08-20T10:51:13;11.20;;;5.47;;
41333;SDS011;27078;46.428;6.256;2023-08-20T10:53:41;7.28;;;4.72;;
41333;SDS011;27078;46.428;6.256;2023-08-20T10:56:12;8.45;;;4.78;;
41333;SDS011;27078;46.428;6.256;2023-08-20T10:58:46;9.35;;;5.20;;
41333;SDS011;27078;46.428;6.256;2023-08-20T11:01:13;9.90;;;4.95;;
41333;SDS011;27078;46.428;6.256;2023-08-20T11:03:40;8.95;;;4.97;;
41333;SDS011;27078;46.428;6.256;2023-08-20T11:06:06;7.65;;;5.13;;
41333;SDS011;27078;46.428;6.256;2023-08-20T11:08:32;6.78;;;4.65;;
41333;SDS011;27078;46.428;6.256;2023-08-20T11:10:58;9.63;;;4.95;;
41333;SDS011;27078;46.428;6.256;2023-08-20T11:13:25;10.32;;;4.80;;
41333;SDS011;27078;46.428;6.256;2023-08-20T11:15:50;7.80;;;4.50;;
41333;SDS011;27078;46.428;6.256;2023-08-20T11:18:16;7.03;;;4.60;;
41333;SDS011;27078;46.428;6.256;2023-08-20T11:20:41;8.13;;;4.63;;
41333;SDS011;27078;46.428;6.256;2023-08-20T11:23:08;7.65;;;4.82;;
41333;SDS011;27078;46.428;6.256;2023-08-20T11:25:40;9.57;;;4.63;;
41333;SDS011;27078;46.428;6.256;2023-08-20T11:28:06;7.72;;;4.40;;
41333;SDS011;27078;46.428;6.256;2023-08-20T11:30:32;7.13;;;4.50;;
41333;SDS011;27078;46.428;6.256;2023-08-20T11:32:57;6.88;;;4.75;;
41333;SDS011;27078;46.428;6.256;2023-08-20T11:35:23;8.77;;;4.30;;
41333;SDS011;27078;46.428;6.256;2023-08-20T11:37:49;6.40;;;4.35;;
41333;SDS011;27078;46.428;6.256;2023-08-20T11:40:14;8.73;;;4.43;;
41333;SDS011;27078;46.428;6.256;2023-08-20T11:42:40;7.35;;;4.60;;
41333;SDS011;27078;46.428;6.256;2023-08-20T11:45:05;7.85;;;4.05;;
41333;SDS011;27078;46.428;6.256;2023-08-20T11:47:38;7.13;;;4.50;;
41333;SDS011;27078;46.428;6.256;2023-08-20T11:50:05;8.60;;;4.10;;
41333;SDS011;27078;46.428;6.256;2023-08-20T11:52:32;9.15;;;4.05;;
41333;SDS011;27078;46.428;6.256;2023-08-20T11:54:58;6.40;;;3.85;;
41333;SDS011;27078;46.428;6.256;2023-08-20T11:57:24;8.13;;;4.18;;
41333;SDS011;27078;46.428;6.256;2023-08-20T11:59:49;8.32;;;4.18;;
41333;SDS011;27078;46.428;6.256;2023-08-20T12:02:14;9.60;;;3.97;;
41333;SDS011;27078;46.428;6.256;2023-08-20T12:04:40;8.50;;;4.47;;
41333;SDS011;27078;46.428;6.256;2023-08-20T12:07:09;9.02;;;4.47;;
41333;SDS011;27078;46.428;6.256;2023-08-20T12:09:38;9.15;;;4.50;;
41333;SDS011;27078;46.428;6.256;2023-08-20T12:12:04;7.13;;;4.35;;
41333;SDS011;27078;46.428;6.256;2023-08-20T12:14:30;7.07;;;4.05;;
41333;SDS011;27078;46.428;6.256;2023-08-20T12:16:56;7.93;;;3.78;;
41333;SDS011;27078;46.428;6.256;2023-08-20T12:19:21;8.30;;;3.90;;
41333;SDS011;27078;46.428;6.256;2023-08-20T12:21:47;8.88;;;4.20;;
41333;SDS011;27078;46.428;6.256;2023-08-20T12:24:14;13.68;;;4.85;;
41333;SDS011;27078;46.428;6.256;2023-08-20T12:26:40;10.45;;;5.20;;
41333;SDS011;27078;46.428;6.256;2023-08-20T12:29:05;14.80;;;6.25;;
41333;SDS011;27078;46.428;6.256;2023-08-20T12:31:32;8.90;;;4.40;;
41333;SDS011;27078;46.428;6.256;2023-08-20T12:33:58;7.60;;;3.35;;
41333;SDS011;27078;46.428;6.256;2023-08-20T12:36:23;7.50;;;3.90;;
41333;SDS011;27078;46.428;6.256;2023-08-20T12:38:48;11.48;;;4.15;;
41333;SDS011;27078;46.428;6.256;2023-08-20T12:41:14;8.25;;;4.10;;
41333;SDS011;27078;46.428;6.256;2023-08-20T12:43:40;6.97;;;3.78;;
41333;SDS011;27078;46.428;6.256;2023-08-20T12:46:05;7.20;;;3.70;;
41333;SDS011;27078;46.428;6.256;2023-08-20T12:48:30;6.82;;;3.80;;
41333;SDS011;27078;46.428;6.256;2023-08-20T12:50:56;9.23;;;3.63;;
41333;SDS011;27078;46.428;6.256;2023-08-20T12:53:21;10.00;;;4.07;;
41333;SDS011;27078;46.428;6.256;2023-08-20T12:55:47;6.75;;;3.58;;
41333;SDS011;27078;46.428;6.256;2023-08-20T12:58:12;7.93;;;3.65;;
41333;SDS011;27078;46.428;6.256;2023-08-20T13:00:38;5.82;;;3.33;;
41333;SDS011;27078;46.428;6.256;2023-08-20T13:03:04;7.10;;;3.47;;
41333;SDS011;27078;46.428;6.256;2023-08-20T13:05:32;7.43;;;3.63;;
41333;SDS011;27078;46.428;6.256;2023-08-20T13:07:58;7.07;;;3.20;;
41333;SDS011;27078;46.428;6.256;2023-08-20T13:10:24;8.90;;;3.50;;
41333;SDS011;27078;46.428;6.256;2023-08-20T13:12:51;7.75;;;3.40;;
41333;SDS011;27078;46.428;6.256;2023-08-20T13:15:19;5.95;;;3.20;;
41333;SDS011;27078;46.428;6.256;2023-08-20T13:17:46;5.85;;;3.15;;
41333;SDS011;27078;46.428;6.256;2023-08-20T13:20:13;6.45;;;3.10;;
41333;SDS011;27078;46.428;6.256;2023-08-20T13:22:39;7.82;;;3.60;;
41333;SDS011;27078;46.428;6.256;2023-08-20T13:25:05;6.63;;;2.90;;
41333;SDS011;27078;46.428;6.256;2023-08-20T13:27:31;6.90;;;3.17;;
41333;SDS011;27078;46.428;6.256;2023-08-20T13:29:56;7.55;;;3.22;;
41333;SDS011;27078;46.428;6.256;2023-08-20T13:32:22;5.18;;;3.22;;
41333;SDS011;27078;46.428;6.256;2023-08-20T13:34:48;8.00;;;3.13;;
41333;SDS011;27078;46.428;6.256;2023-08-20T13:37:17;6.05;;;2.92;;
41333;SDS011;27078;46.428;6.256;2023-08-20T13:39:42;6.97;;;2.85;;
41333;SDS011;27078;46.428;6.256;2023-08-20T13:42:08;5.82;;;2.97;;
41333;SDS011;27078;46.428;6.256;2023-08-20T13:44:33;6.35;;;3.05;;
41333;SDS011;27078;46.428;6.256;2023-08-20T13:46:58;7.80;;;3.00;;
41333;SDS011;27078;46.428;6.256;2023-08-20T13:49:24;6.80;;;3.05;;
41333;SDS011;27078;46.428;6.256;2023-08-20T13:51:50;6.18;;;2.88;;
41333;SDS011;27078;46.428;6.256;2023-08-20T13:54:15;6.90;;;3.00;;
41333;SDS011;27078;46.428;6.256;2023-08-20T13:56:41;6.35;;;2.50;;
41333;SDS011;27078;46.428;6.256;2023-08-20T13:59:06;8.25;;;3.00;;
41333;SDS011;27078;46.428;6.256;2023-08-20T14:01:34;4.93;;;2.60;;
41333;SDS011;27078;46.428;6.256;2023-08-20T14:03:59;7.93;;;2.80;;
41333;SDS011;27078;46.428;6.256;2023-08-20T14:06:25;5.22;;;2.70;;
41333;SDS011;27078;46.428;6.256;2023-08-20T14:08:50;8.40;;;2.53;;
41333;SDS011;27078;46.428;6.256;2023-08-20T14:11:15;6.50;;;3.00;;
41333;SDS011;27078;46.428;6.256;2023-08-20T14:13:41;9.05;;;2.70;;
41333;SDS011;27078;46.428;6.256;2023-08-20T14:16:07;10.30;;;3.03;;
41333;SDS011;27078;46.428;6.256;2023-08-20T14:18:33;7.82;;;2.92;;
41333;SDS011;27078;46.428;6.256;2023-08-20T14:20:58;7.22;;;3.10;;
41333;SDS011;27078;46.428;6.256;2023-08-20T14:23:24;9.10;;;2.85;;
41333;SDS011;27078;46.428;6.256;2023-08-20T14:25:49;8.48;;;2.67;;
41333;SDS011;27078;46.428;6.256;2023-08-20T14:28:14;7.18;;;2.92;;
41333;SDS011;27078;46.428;6.256;2023-08-20T14:30:40;6.95;;;2.60;;
41333;SDS011;27078;46.428;6.256;2023-08-20T14:33:05;6.85;;;2.80;;
41333;SDS011;27078;46.428;6.256;2023-08-20T14:35:31;6.43;;;2.88;;
41333;SDS011;27078;46.428;6.256;2023-08-20T14:37:57;5.30;;;2.60;;
41333;SDS011;27078;46.428;6.256;2023-08-20T14:40:22;6.85;;;2.65;;
41333;SDS011;27078;46.428;6.256;2023-08-20T14:42:48;8.02;;;2.75;;
41333;SDS011;27078;46.428;6.256;2023-08-20T14:45:14;5.65;;;2.90;;
41333;SDS011;27078;46.428;6.256;2023-08-20T14:47:39;8.02;;;2.90;;
41333;SDS011;27078;46.428;6.256;2023-08-20T14:50:05;7.32;;;2.90;;
41333;SDS011;27078;46.428;6.256;2023-08-20T14:52:31;7.65;;;2.90;;
41333;SDS011;27078;46.428;6.256;2023-08-20T14:54:56;7.45;;;2.50;;